Terminal Aerodrome Forecast
Issued by NWS

Home | Current Version | Previous Version | Text Only | Print | Product List | Glossary On
Versions: 1 2 3 4 5 6 7 8 9 10 11 12 13
000
FTUS46 KPDT 270539
TAFBDN
TAF
KBDN 270539Z 2706/2806 VRB06KT P6SM SCT050 BKN070
     FM270800 VRB06KT P6SM SCT100
     FM271500 VRB06KT P6SM SCT100
     FM280400 17007KT P6SM SCT250=

USA.gov is the U.S. government's official web portal to all federal, state and local government web resources and services.